Time;durP1;ratioP1;P1;durP2;ratioP2;P2;SDS_P1;SDS_P2;PMS_P1;PMS_P2;Temp;Humidity;BMP_temperature;BMP_pressure;BME280_temperature;BME280_humidity;BME280_pressure;Samples;Min_cycle;Max_cycle;Signal;HPM_P1;HPM_P2
2023/03/29 00:01:29;;;;;;;5.75;3.40;;;4.90;99.90;;;-144.05;71.52;56972.03;5075704;28;20038;-78
2023/03/29 00:03:56;;;;;;;7.88;3.45;;;4.90;99.90;;;-144.05;70.39;56991.13;5076299;28;20060;-78
2023/03/29 00:06:22;;;;;;;7.88;3.05;;;4.90;99.90;;;-144.05;70.62;56957.16;5076804;28;20025;-78
2023/03/29 00:08:53;;;;;;;5.97;3.70;;;5.00;99.90;;;-144.05;70.80;56995.38;5076710;28;20109;-78
2023/03/29 00:11:21;;;;;;;6.75;3.40;;;5.00;99.90;;;-144.05;70.43;56976.28;5076776;28;20059;-77
2023/03/29 00:13:49;;;;;;;5.05;2.60;;;4.90;99.90;;;-144.05;70.21;56963.53;5076139;28;20054;-77
2023/03/29 00:16:15;;;;;;;7.30;3.47;;;4.90;99.90;;;-144.05;70.39;56969.91;5076714;28;20032;-77
2023/03/29 00:18:40;;;;;;;6.35;3.50;;;4.80;99.90;;;-144.05;70.32;56995.38;5076619;28;20024;-78
2023/03/29 00:21:07;;;;;;;6.53;3.33;;;4.90;99.90;;;-144.05;70.96;56982.66;5075631;28;20164;-77
2023/03/29 00:23:33;;;;;;;5.13;2.92;;;4.90;99.90;;;-144.05;70.20;56957.16;5078751;28;20056;-79
2023/03/29 00:25:59;;;;;;;6.15;2.58;;;4.90;99.90;;;-144.05;70.02;56974.16;5077684;28;20151;-77
2023/03/29 00:28:25;;;;;;;6.30;3.00;;;4.80;99.90;;;-144.05;69.41;56978.41;5077061;28;20020;-78
2023/03/29 00:30:51;;;;;;;5.78;2.97;;;4.90;99.90;;;-144.05;69.87;56984.78;5075713;28;20059;-76
2023/03/29 00:33:19;;;;;;;4.88;3.22;;;4.90;99.90;;;-144.05;70.07;56961.41;5075080;28;20020;-76
2023/03/29 00:35:47;;;;;;;6.72;3.08;;;4.90;99.90;;;-144.05;69.66;56976.28;5076861;28;20032;-77
2023/03/29 00:38:16;;;;;;;3.75;3.03;;;4.90;99.90;;;-144.05;69.13;56969.91;5076137;28;20098;-78
2023/03/29 00:40:45;;;;;;;4.90;2.65;;;4.90;99.90;;;-144.05;69.45;57001.75;5076438;28;20112;-76
2023/03/29 00:43:14;;;;;;;5.57;2.65;;;5.00;99.90;;;-144.05;69.44;56993.25;5075074;28;20119;-79
2023/03/29 00:45:41;;;;;;;5.47;3.15;;;5.00;99.90;;;-144.05;69.18;56986.91;5075251;28;20028;-76
2023/03/29 00:48:15;;;;;;;6.50;2.85;;;5.00;99.90;;;-144.05;69.27;56974.16;5076225;28;20020;-79
2023/03/29 00:50:50;;;;;;;6.57;2.90;;;5.00;99.90;;;-144.05;68.93;56972.03;5076115;28;20369;-77
2023/03/29 00:53:44;;;;;;;5.70;2.58;;;5.10;99.90;;;-144.05;68.57;56980.53;5076297;28;20031;-77
2023/03/29 00:56:25;;;;;;;5.88;2.28;;;5.10;99.90;;;-144.05;68.38;56982.66;5075416;28;20036;-77
2023/03/29 00:59:06;;;;;;;4.72;2.67;;;5.10;99.90;;;-144.05;68.21;56982.66;5075561;28;20029;-77
2023/03/29 01:01:53;;;;;;;7.55;2.65;;;5.10;99.90;;;-144.05;68.30;56982.66;5074652;28;20507;-76
2023/03/29 01:04:35;;;;;;;7.85;3.13;;;5.20;99.90;;;-144.05;68.14;56978.41;5074326;28;20032;-78
2023/03/29 01:07:39;;;;;;;3.78;2.88;;;5.20;99.90;;;-144.05;68.00;56986.91;5074561;28;20017;-76
2023/03/29 01:10:16;;;;;;;4.65;2.63;;;5.20;99.90;;;-144.05;68.01;56997.50;5041095;28;20044;-76
2023/03/29 01:12:57;;;;;;;6.78;2.67;;;5.20;99.90;;;-144.05;67.53;56986.91;5075355;28;20115;-77
2023/03/29 01:15:27;;;;;;;6.80;2.33;;;5.20;99.90;;;-144.05;67.54;56974.16;5075520;28;20122;-76
2023/03/29 01:17:56;;;;;;;4.15;2.72;;;5.20;99.90;;;-144.05;66.99;56963.53;5076820;28;20028;-78
2023/03/29 01:21:01;;;;;;;4.15;3.35;;;5.30;99.90;;;-144.05;67.17;56967.78;5075067;28;20047;-77
2023/03/29 01:23:52;;;;;;;8.98;3.10;;;5.30;99.90;;;-144.05;67.56;56984.78;5072137;28;20041;-78
2023/03/29 01:26:50;;;;;;;7.38;2.88;;;5.30;99.90;;;-144.05;67.21;56967.78;5075621;28;20029;-79
2023/03/29 01:29:25;;;;;;;7.03;3.05;;;5.30;99.90;;;-144.05;66.33;56978.41;5078322;28;20108;-77
2023/03/29 01:32:27;;;;;;;3.92;2.50;;;5.30;99.90;;;-144.05;66.47;56969.91;5078423;28;20035;-78
2023/03/29 01:35:01;;;;;;;6.95;3.13;;;5.40;99.90;;;-144.05;66.01;56976.28;5078320;28;20519;-79
2023/03/29 01:37:46;;;;;;;4.28;2.38;;;5.40;99.90;;;-144.05;66.88;56969.91;5076832;28;20058;-77
2023/03/29 01:40:13;;;;;;;2.97;2.35;;;5.40;99.90;;;-144.05;66.17;56997.50;5076674;28;20028;-78
2023/03/29 01:43:00;;;;;;;4.70;2.15;;;5.50;99.90;;;-144.05;65.46;56969.91;5076180;28;20043;-79
2023/03/29 01:45:49;;;;;;;5.38;2.63;;;5.50;99.90;;;-144.05;65.51;56972.03;5075925;28;20194;-78
2023/03/29 01:48:37;;;;;;;7.43;2.90;;;5.50;99.90;;;-144.05;65.96;56976.28;5074341;28;20028;-77
2023/03/29 01:51:28;;;;;;;5.07;2.20;;;5.50;99.90;;;-144.05;65.47;56989.00;5073924;28;20055;-78
2023/03/29 01:54:41;;;;;;;4.80;2.30;;;5.60;99.90;;;-144.05;65.04;56957.16;5074875;28;20025;-76
2023/03/29 01:57:10;;;;;;;4.93;2.38;;;5.60;99.90;;;-144.05;64.68;56976.28;5072939;28;20028;-77
2023/03/29 01:59:46;;;;;;;3.88;2.25;;;5.60;99.90;;;-144.05;65.25;56957.16;5072331;28;20395;-77
2023/03/29 02:02:17;;;;;;;6.50;1.98;;;5.60;99.90;;;-144.05;65.04;56980.53;5072860;28;20042;-77
2023/03/29 02:04:52;;;;;;;6.15;2.30;;;5.60;99.90;;;-144.05;64.51;56965.66;5072885;28;20058;-77
2023/03/29 02:07:26;;;;;;;3.83;2.20;;;5.60;99.90;;;-144.05;64.85;56965.66;5073176;28;20040;-76
2023/03/29 02:09:54;;;;;;;4.57;2.53;;;5.60;99.90;;;-144.05;64.28;56963.53;5073800;28;20103;-78
2023/03/29 02:12:21;;;;;;;4.93;2.58;;;5.60;99.90;;;-144.05;64.74;56933.78;5074546;28;20526;-78
2023/03/29 02:14:46;;;;;;;3.10;2.08;;;5.60;99.90;;;-144.05;64.36;56976.28;5074646;28;20028;-78
2023/03/29 02:17:24;;;;;;;4.68;2.63;;;5.70;99.90;;;-144.05;63.89;56967.78;5074333;28;20039;-78
2023/03/29 02:20:18;;;;;;;4.10;2.17;;;5.70;99.90;;;-144.05;63.89;56946.53;5074190;28;20024;-78
2023/03/29 02:23:33;;;;;;;4.50;2.38;;;5.70;99.90;;;-144.05;64.15;56976.28;5073669;28;20036;-78
2023/03/29 02:26:02;;;;;;;4.13;1.75;;;5.80;99.90;;;-144.05;63.55;56980.53;5074151;28;20143;-78
2023/03/29 02:28:30;;;;;;;4.50;2.13;;;5.80;99.90;;;-144.05;63.97;56984.78;5074237;28;20025;-77
2023/03/29 02:31:24;;;;;;;3.80;1.80;;;5.80;99.90;;;-144.05;63.33;56984.78;5072592;28;20108;-79
2023/03/29 02:34:23;;;;;;;5.13;2.47;;;5.80;99.90;;;-144.05;63.57;56980.53;5071471;28;20469;-76
2023/03/29 02:37:05;;;;;;;4.03;1.90;;;5.90;99.90;;;-144.05;63.52;56978.41;5075833;28;20055;-76
2023/03/29 02:39:34;;;;;;;2.72;1.90;;;5.90;99.90;;;-144.05;63.47;56955.03;5076504;28;20039;-78
2023/03/29 02:42:05;;;;;;;4.00;2.17;;;5.90;99.90;;;-144.05;63.13;56993.25;5077899;28;20036;-78
2023/03/29 02:44:38;;;;;;;2.97;2.33;;;5.90;99.90;;;-144.05;63.28;56972.03;5077614;28;20024;-78
2023/03/29 02:47:16;;;;;;;3.40;2.13;;;6.00;99.90;;;-144.05;63.05;56948.66;5077781;28;20120;-78
2023/03/29 02:49:43;;;;;;;5.65;2.50;;;6.00;99.90;;;-144.05;62.73;56938.03;5078727;28;20024;-78
2023/03/29 02:52:21;;;;;;;2.90;1.85;;;6.00;99.90;;;-144.05;62.60;56969.91;5078246;28;20016;-77
2023/03/29 02:54:53;;;;;;;4.15;2.15;;;6.00;99.90;;;-144.05;62.75;57001.75;5078402;28;20296;-78
2023/03/29 02:57:25;;;;;;;5.75;2.15;;;6.00;99.90;;;-144.05;62.53;56965.66;5079191;28;20187;-78
2023/03/29 02:59:57;;;;;;;4.35;2.08;;;6.00;99.90;;;-144.05;62.58;56959.28;5077437;28;20511;-77
2023/03/29 03:02:26;;;;;;;3.47;1.88;;;6.00;99.90;;;-144.05;62.45;56991.13;5078089;28;20032;-77
2023/03/29 03:04:53;;;;;;;4.65;2.20;;;6.00;99.90;;;-144.05;62.10;56955.03;5077444;28;20024;-78
2023/03/29 03:07:19;;;;;;;3.83;2.30;;;6.00;99.90;;;-144.05;62.72;56978.41;5077488;28;20034;-78
2023/03/29 03:09:46;;;;;;;4.03;2.10;;;6.00;99.90;;;-144.05;62.63;56963.53;5059619;28;20086;-77
2023/03/29 03:12:12;;;;;;;3.33;2.15;;;6.00;99.90;;;-144.05;62.07;56974.16;5077814;28;20020;-78
2023/03/29 03:14:39;;;;;;;4.22;2.20;;;6.10;99.90;;;-144.05;62.11;56961.41;5077652;28;20529;-78
2023/03/29 03:17:05;;;;;;;3.60;2.13;;;6.10;99.90;;;-144.05;61.75;56972.03;5077175;28;20055;-78
2023/03/29 03:19:30;;;;;;;5.72;2.25;;;6.10;99.90;;;-144.05;61.67;56967.78;5077258;28;20032;-77
2023/03/29 03:21:57;;;;;;;5.07;2.60;;;6.10;99.90;;;-144.05;61.77;56944.41;5077719;28;20031;-78
2023/03/29 03:24:23;;;;;;;4.82;2.20;;;6.20;99.90;;;-144.05;61.96;56963.53;5077840;28;20480;-76
2023/03/29 03:26:48;;;;;;;5.03;2.70;;;6.20;99.90;;;-144.05;62.20;56969.91;5075980;28;20123;-77
2023/03/29 03:29:15;;;;;;;4.63;2.30;;;6.20;99.90;;;-144.05;62.04;56965.66;5077938;28;20036;-79
2023/03/29 03:31:41;;;;;;;6.50;2.10;;;6.20;99.90;;;-144.05;61.53;56948.66;5077460;28;20104;-78
2023/03/29 03:34:07;;;;;;;4.95;2.25;;;6.20;99.90;;;-144.05;61.35;56976.28;5076508;28;20060;-77
2023/03/29 03:36:34;;;;;;;5.28;2.50;;;6.20;99.90;;;-144.05;61.23;56925.28;5078516;28;20035;-77
2023/03/29 03:39:04;;;;;;;7.03;2.33;;;6.20;99.90;;;-144.05;61.12;56955.03;5078831;28;20032;-77
2023/03/29 03:41:31;;;;;;;5.07;2.03;;;6.20;99.90;;;-144.05;61.40;56959.28;5078144;28;20024;-78
2023/03/29 03:43:58;;;;;;;4.30;2.30;;;6.20;99.90;;;-144.05;61.58;56946.53;5078690;28;20032;-78
2023/03/29 03:46:24;;;;;;;5.72;2.28;;;6.20;99.90;;;-144.05;61.86;56957.16;5077646;28;20032;-78
2023/03/29 03:48:50;;;;;;;5.75;2.50;;;6.20;99.90;;;-144.05;61.22;56946.53;5076557;28;20024;-79
2023/03/29 03:51:17;;;;;;;6.90;2.65;;;6.20;99.90;;;-144.05;61.18;56950.78;5078046;28;20108;-79
2023/03/29 03:53:43;;;;;;;3.97;2.20;;;6.30;99.90;;;-144.05;60.89;56967.78;5078375;28;20445;-79
2023/03/29 03:56:09;;;;;;;3.92;2.05;;;6.30;99.90;;;-144.05;61.30;56957.16;5077783;28;20028;-79
2023/03/29 03:58:36;;;;;;;4.00;1.92;;;6.30;99.90;;;-144.05;61.06;56952.91;5076938;28;20097;-76
2023/03/29 04:01:07;;;;;;;8.88;2.35;;;6.30;99.90;;;-144.05;61.21;56969.91;5076447;28;20113;-79
2023/03/29 04:03:33;;;;;;;5.90;2.47;;;6.40;99.90;;;-144.05;60.93;56944.41;5076138;28;20056;-78
2023/03/29 04:06:02;;;;;;;5.38;2.88;;;6.30;99.90;;;-144.05;60.87;56961.41;5076493;28;20056;-76
2023/03/29 04:08:28;;;;;;;7.00;2.38;;;6.30;99.90;;;-144.05;61.14;56955.03;5075056;28;20031;-77
2023/03/29 04:10:57;;;;;;;6.68;2.40;;;6.40;99.90;;;-144.05;61.26;56963.53;5074971;28;20028;-77
2023/03/29 04:13:25;;;;;;;5.07;2.17;;;6.40;99.90;;;-144.05;61.04;56959.28;5077076;28;20100;-78
2023/03/29 04:15:55;;;;;;;4.05;1.80;;;6.30;99.90;;;-144.05;61.37;56982.66;5078529;28;20046;-79
2023/03/29 04:18:22;;;;;;;4.60;2.08;;;6.40;99.90;;;-144.05;61.97;56944.41;5077770;28;20024;-79
2023/03/29 04:20:49;;;;;;;4.03;2.63;;;6.40;99.90;;;-144.05;62.77;56925.28;5078094;28;20095;-78
2023/03/29 04:23:15;;;;;;;4.57;2.60;;;6.40;99.90;;;-144.05;63.96;56967.78;5077376;28;20036;-78
2023/03/29 04:25:41;;;;;;;7.80;2.65;;;6.30;99.90;;;-144.05;64.47;56957.16;5077592;28;20415;-78
2023/03/29 04:28:10;;;;;;;5.82;2.40;;;6.30;99.90;;;-144.05;64.68;56967.78;5076683;28;20020;-79
2023/03/29 04:30:37;;;;;;;6.05;2.40;;;6.30;99.90;;;-144.05;65.21;56972.03;5076866;28;20438;-77
2023/03/29 04:33:03;;;;;;;5.32;2.85;;;6.20;99.90;;;-144.05;65.43;56963.53;5077222;28;20032;-78
2023/03/29 04:35:29;;;;;;;5.55;2.97;;;6.20;99.90;;;-144.05;65.94;56965.66;5076931;28;20431;-78
2023/03/29 04:37:54;;;;;;;6.10;2.42;;;6.20;99.90;;;-144.05;66.02;56948.66;5077508;28;20052;-77
2023/03/29 04:40:20;;;;;;;4.57;2.50;;;6.10;99.90;;;-144.05;66.48;56955.03;5077153;28;20090;-78
2023/03/29 04:42:46;;;;;;;8.50;2.60;;;6.10;99.90;;;-144.05;66.63;56963.53;5076319;28;20028;-78
2023/03/29 04:45:16;;;;;;;4.85;2.90;;;6.10;99.90;;;-144.05;67.69;56957.16;5076535;28;20112;-77
2023/03/29 04:47:44;;;;;;;7.05;3.00;;;6.10;99.90;;;-144.05;68.01;56959.28;5076549;28;20055;-77
2023/03/29 04:50:12;;;;;;;5.13;2.70;;;6.10;99.90;;;-144.05;68.34;56959.28;5076003;28;20095;-77
2023/03/29 04:52:39;;;;;;;5.90;3.20;;;6.00;99.90;;;-144.05;68.78;56965.66;5076328;28;20025;-77
2023/03/29 04:55:08;;;;;;;4.90;2.72;;;6.00;99.90;;;-144.05;68.37;56965.66;5075871;28;20039;-77
2023/03/29 04:57:34;;;;;;;7.63;3.10;;;6.00;99.90;;;-144.05;68.65;56969.91;5075697;28;20382;-77
2023/03/29 05:00:00;;;;;;;7.10;2.80;;;6.00;99.90;;;-144.05;68.57;56944.41;5076034;28;20029;-78
2023/03/29 05:02:26;;;;;;;8.38;3.35;;;6.00;99.90;;;-144.05;68.87;56948.66;5067864;22;20054;-76
2023/03/29 05:04:51;;;;;;;12.30;3.33;;;6.00;99.90;;;-144.05;68.57;56961.41;5016445;28;20043;-76
2023/03/29 05:07:18;;;;;;;8.38;3.42;;;6.00;99.90;;;-144.05;68.61;56950.78;5036367;28;20025;-77
2023/03/29 05:09:44;;;;;;;6.43;3.05;;;6.00;99.90;;;-144.05;68.01;56950.78;5018131;28;20038;-77
2023/03/29 05:12:10;;;;;;;8.13;3.10;;;6.00;99.90;;;-144.05;68.18;56965.66;5044857;28;20052;-78
2023/03/29 05:14:36;;;;;;;5.07;2.97;;;6.00;99.90;;;-144.05;68.27;56967.78;5055736;28;20341;-78
2023/03/29 05:17:05;;;;;;;4.82;2.92;;;6.10;99.90;;;-144.05;68.32;56946.53;5056380;28;20102;-77
2023/03/29 05:19:31;;;;;;;10.88;3.53;;;6.10;99.90;;;-144.05;67.61;56980.53;5055314;28;20017;-77
2023/03/29 05:21:56;;;;;;;4.70;2.65;;;6.10;99.90;;;-144.05;67.52;56957.16;5055879;28;20093;-78
2023/03/29 05:24:22;;;;;;;6.40;3.25;;;6.20;99.90;;;-144.05;67.26;56980.53;5055295;28;20091;-76
2023/03/29 05:26:50;;;;;;;7.55;2.53;;;6.30;99.90;;;-144.05;66.80;56963.53;5055434;28;20032;-77
2023/03/29 05:29:17;;;;;;;4.90;2.90;;;6.30;99.90;;;-144.05;67.36;56982.66;5036517;28;20029;-77
2023/03/29 05:31:43;;;;;;;8.93;2.92;;;6.40;99.90;;;-144.05;66.73;56963.53;5037159;28;20025;-77
2023/03/29 05:34:09;;;;;;;7.15;3.15;;;6.40;99.90;;;-144.05;67.20;56972.03;5035793;28;20035;-77
2023/03/29 05:36:37;;;;;;;6.10;3.05;;;6.40;99.90;;;-144.05;67.29;56955.03;5054345;28;20029;-77
2023/03/29 05:39:03;;;;;;;6.63;2.97;;;6.50;99.90;;;-144.05;67.22;56959.28;5036908;28;20086;-77
2023/03/29 05:41:29;;;;;;;11.07;3.15;;;6.50;99.90;;;-144.05;67.54;56967.78;5038620;28;20691;-77
2023/03/29 05:43:55;;;;;;;5.20;3.22;;;6.50;99.90;;;-144.05;67.27;56948.66;5035638;28;20033;-77
2023/03/29 05:46:21;;;;;;;9.88;3.25;;;6.50;99.90;;;-144.05;67.63;56940.16;5052346;28;20424;-77
2023/03/29 05:48:47;;;;;;;7.60;3.47;;;6.50;99.90;;;-144.05;68.97;56978.41;5051883;28;20017;-77
2023/03/29 05:51:13;;;;;;;6.35;3.40;;;6.50;99.90;;;-144.05;69.87;56978.41;5051850;28;20020;-77
2023/03/29 05:53:39;;;;;;;5.38;3.70;;;6.50;99.90;;;-144.05;70.77;56918.94;5034166;28;20106;-77
2023/03/29 05:56:07;;;;;;;13.02;4.32;;;6.40;99.90;;;-144.05;71.72;56940.16;5051833;28;20104;-76
2023/03/29 05:58:33;;;;;;;7.65;3.97;;;6.40;99.90;;;-144.05;71.77;56933.78;5052777;28;20051;-78
2023/03/29 06:01:01;;;;;;;7.07;3.88;;;6.40;99.90;;;-144.05;71.99;56940.16;5052731;28;20036;-78
2023/03/29 06:03:27;;;;;;;7.72;4.25;;;6.40;99.90;;;-144.05;72.02;56955.03;5054402;28;20032;-76
2023/03/29 06:06:02;;;;;;;10.98;5.03;;;6.40;99.90;;;-144.05;72.22;56959.28;5053983;28;20452;-78
2023/03/29 06:08:30;;;;;;;9.73;4.25;;;6.40;99.90;;;-144.05;72.89;56955.03;5054586;28;20025;-77
2023/03/29 06:11:05;;;;;;;5.72;3.97;;;6.40;99.90;;;-144.05;73.10;56933.78;5055853;28;20055;-76
2023/03/29 06:13:32;;;;;;;10.65;4.90;;;6.40;99.90;;;-144.05;73.55;56961.41;5060544;28;20026;-76
2023/03/29 06:15:59;;;;;;;6.90;4.78;;;6.40;99.90;;;-144.05;74.41;56955.03;5061107;28;20435;-77
2023/03/29 06:18:26;;;;;;;9.43;4.90;;;6.40;99.90;;;-144.05;73.92;56978.41;5061697;28;20060;-78
2023/03/29 06:20:52;;;;;;;11.07;4.70;;;6.50;99.90;;;-144.05;73.67;56959.28;5061539;28;20029;-77
2023/03/29 06:23:20;;;;;;;9.00;4.75;;;6.60;99.90;;;-144.05;73.21;56942.28;5062174;28;20033;-76
2023/03/29 06:25:47;;;;;;;9.65;4.55;;;6.60;99.90;;;-144.05;73.09;56961.41;5062491;28;20033;-78
2023/03/29 06:28:14;;;;;;;8.25;4.00;;;6.60;99.90;;;-144.05;72.74;56969.91;5044463;28;20020;-77
2023/03/29 06:30:40;;;;;;;8.10;4.68;;;6.70;99.90;;;-144.05;72.70;56952.91;5062619;28;20040;-77
2023/03/29 06:33:09;;;;;;;9.02;4.28;;;6.80;99.90;;;-144.05;73.15;56948.66;5061964;28;20045;-78
2023/03/29 06:35:36;;;;;;;7.63;4.40;;;6.80;99.90;;;-144.05;73.17;56957.16;5062084;28;20120;-77
2023/03/29 06:38:03;;;;;;;9.07;4.60;;;6.80;99.90;;;-144.05;72.86;56929.53;5060951;28;20036;-77
2023/03/29 06:40:30;;;;;;;11.35;4.57;;;6.80;99.90;;;-144.05;72.61;56935.91;5044318;28;20037;-75
2023/03/29 06:42:57;;;;;;;10.18;4.75;;;6.90;99.90;;;-144.05;72.58;56967.78;5042945;28;20032;-76
2023/03/29 06:45:25;;;;;;;10.07;4.85;;;7.00;99.90;;;-144.05;72.12;56957.16;5042801;28;20051;-75
2023/03/29 06:47:51;;;;;;;11.20;4.22;;;7.00;99.90;;;-144.05;72.33;56948.66;5060679;28;20059;-77
2023/03/29 06:50:18;;;;;;;12.40;4.38;;;7.10;99.90;;;-144.05;72.24;56940.16;5061287;28;20017;-77
2023/03/29 06:52:45;;;;;;;7.63;4.05;;;7.20;99.90;;;-144.05;72.01;56961.41;5043518;28;20150;-74
2023/03/29 06:55:11;;;;;;;8.55;5.18;;;7.20;99.90;;;-144.05;70.98;56942.28;5061643;28;20088;-77
2023/03/29 06:57:39;;;;;;;10.73;4.70;;;7.30;99.90;;;-144.05;70.70;56938.03;5069427;28;20029;-76
2023/03/29 07:00:15;;;;;;;8.65;4.30;;;7.30;99.90;;;-144.05;71.11;56957.16;5053256;28;20033;-77
2023/03/29 07:02:41;;;;;;;9.57;4.78;;;7.30;99.90;;;-144.05;70.13;56935.91;5071658;28;20044;-77
2023/03/29 07:05:13;;;;;;;9.18;4.20;;;7.40;99.90;;;-144.05;70.10;56935.91;5071807;28;20032;-76
2023/03/29 07:07:53;;;;;;;9.15;4.35;;;7.50;99.90;;;-144.05;69.82;56935.91;5073183;28;20032;-77
2023/03/29 07:10:32;;;;;;;10.90;4.47;;;7.50;99.90;;;-144.05;69.94;56940.16;5071760;28;20478;-76
2023/03/29 07:13:00;;;;;;;8.07;4.22;;;7.60;99.90;;;-144.05;69.57;56948.66;5044781;28;20189;-77
2023/03/29 07:15:28;;;;;;;7.07;3.90;;;7.60;99.90;;;-144.05;68.54;56925.28;5044510;28;20033;-78
2023/03/29 07:17:54;;;;;;;10.98;4.05;;;7.70;99.90;;;-144.05;68.40;56942.28;5043205;28;20064;-77
2023/03/29 07:20:21;;;;;;;8.93;4.22;;;7.70;99.90;;;-144.05;67.79;56948.66;5062086;28;20029;-78
2023/03/29 07:22:52;;;;;;;8.15;3.33;;;7.80;99.90;;;-144.05;67.71;56967.78;5059805;28;20048;-76
2023/03/29 07:25:22;;;;;;;7.68;4.00;;;7.80;99.90;;;-144.05;67.15;56931.66;5040796;28;20029;-77
2023/03/29 07:27:49;;;;;;;11.82;4.13;;;7.80;99.90;;;-144.05;67.28;56931.66;5058909;28;20495;-77
2023/03/29 07:30:24;;;;;;;6.63;3.55;;;7.90;99.90;;;-144.05;66.88;56935.91;5057335;28;20017;-74
2023/03/29 07:32:51;;;;;;;8.02;3.80;;;8.00;99.90;;;-144.05;66.53;56925.28;5055670;28;20029;-76
2023/03/29 07:35:17;;;;;;;7.20;3.65;;;8.10;99.90;;;-144.05;65.85;56929.53;5039045;28;20041;-76
2023/03/29 07:37:45;;;;;;;6.75;3.92;;;8.10;99.90;;;-144.05;65.14;56925.28;5058103;28;20040;-77
2023/03/29 07:40:22;;;;;;;10.43;3.50;;;8.20;99.90;;;-144.05;65.36;56925.28;5057500;28;20438;-76
2023/03/29 07:42:55;;;;;;;6.63;4.75;;;8.30;99.90;;;-144.05;64.05;56925.28;5057965;28;20033;-77
2023/03/29 07:45:27;;;;;;;6.78;3.80;;;8.30;99.90;;;-144.05;64.23;56944.41;5055504;28;20031;-76
2023/03/29 07:47:57;;;;;;;9.25;3.83;;;8.30;99.90;;;-144.05;64.45;56938.03;5057182;28;20035;-78
2023/03/29 07:50:25;;;;;;;7.93;3.78;;;8.40;99.90;;;-144.05;64.23;56944.41;5041557;28;20032;-76
2023/03/29 07:52:52;;;;;;;6.65;3.42;;;8.50;99.90;;;-144.05;64.28;56927.41;5061154;28;20025;-74
2023/03/29 07:55:19;;;;;;;6.68;3.65;;;8.50;99.90;;;-144.05;62.83;56933.78;5059637;28;20112;-74
2023/03/29 07:57:45;;;;;;;9.45;3.30;;;8.60;99.90;;;-144.05;62.86;56946.53;5062451;28;20028;-75
2023/03/29 08:00:16;;;;;;;6.95;2.83;;;8.60;99.90;;;-144.05;62.37;56940.16;5058682;28;20075;-77
2023/03/29 08:02:51;;;;;;;8.38;3.08;;;8.70;99.90;;;-144.05;62.05;56927.41;5056219;28;20447;-77
2023/03/29 08:05:21;;;;;;;6.97;3.67;;;8.70;99.90;;;-144.05;62.23;56929.53;5056372;28;20508;-76
2023/03/29 08:07:48;;;;;;;8.77;3.17;;;8.70;99.90;;;-144.05;61.96;56925.28;5056591;28;20017;-76
2023/03/29 08:10:21;;;;;;;8.57;3.20;;;8.80;99.90;;;-144.05;62.08;56942.28;5040546;28;20033;-75
2023/03/29 08:12:51;;;;;;;5.88;2.88;;;8.80;99.90;;;-144.05;61.42;56929.53;5056979;28;20032;-77
2023/03/29 08:15:17;;;;;;;6.47;3.63;;;8.90;99.90;;;-144.05;60.87;56906.19;5058133;28;20029;-78
2023/03/29 08:17:43;;;;;;;6.38;3.30;;;9.00;99.90;;;-144.05;60.63;56948.66;5056979;28;20035;-76
2023/03/29 08:20:17;;;;;;;8.45;3.05;;;9.10;99.90;;;-144.05;60.09;56942.28;5059704;28;20089;-77
2023/03/29 08:22:43;;;;;;;7.43;3.38;;;9.20;99.90;;;-144.05;60.23;56946.53;5058014;28;20029;-74
2023/03/29 08:25:10;;;;;;;5.93;3.03;;;9.30;99.90;;;-144.05;60.01;56940.16;5061089;28;20068;-77
2023/03/29 08:27:37;;;;;;;8.35;3.10;;;9.40;99.90;;;-144.05;58.85;56925.28;5041009;28;20476;-77
2023/03/29 08:30:08;;;;;;;4.97;3.00;;;9.50;99.90;;;-144.05;59.59;56935.91;5041278;28;20120;-77
2023/03/29 08:32:38;;;;;;;7.70;3.17;;;9.50;99.90;;;-144.05;58.70;56929.53;5057161;28;20033;-78
2023/03/29 08:35:07;;;;;;;7.43;3.00;;;9.60;99.90;;;-144.05;58.37;56933.78;5039179;28;20029;-77
2023/03/29 08:37:33;;;;;;;6.88;2.90;;;9.70;99.90;;;-144.05;58.39;56931.66;5056562;28;20036;-76
2023/03/29 08:40:00;;;;;;;8.30;3.22;;;9.70;99.90;;;-144.05;58.02;56925.28;5039510;28;20040;-77
2023/03/29 08:42:53;;;;;;;6.13;2.95;;;9.80;99.90;;;-144.05;58.07;56910.44;5056756;28;20055;-77
2023/03/29 08:46:11;;;;;;;7.57;3.05;;;9.90;99.90;;;-144.05;57.06;56887.06;5056847;28;20029;-77
2023/03/29 08:48:52;;;;;;;5.45;2.92;;;10.00;99.90;;;-144.05;56.99;56927.41;5045470;28;20037;-76
2023/03/29 08:51:46;;;;;;;8.65;3.25;;;10.00;99.90;;;-144.05;56.41;56927.41;5055515;28;20057;-76
2023/03/29 08:54:23;;;;;;;5.22;2.78;;;10.10;99.90;;;-144.05;56.74;56929.53;5056118;28;20025;-77
2023/03/29 08:56:56;;;;;;;6.95;2.95;;;10.10;99.90;;;-144.05;56.24;56929.53;5054868;28;20033;-76
2023/03/29 08:59:31;;;;;;;5.32;2.63;;;10.10;99.90;;;-144.05;56.90;56912.56;5054927;28;20024;-75
2023/03/29 09:02:03;;;;;;;5.47;2.95;;;10.20;99.90;;;-144.05;56.92;56942.28;5054877;28;20033;-75
2023/03/29 09:04:36;;;;;;;6.40;3.17;;;10.20;99.90;;;-144.05;57.28;56927.41;5056739;28;20500;-77
2023/03/29 09:07:08;;;;;;;6.28;3.15;;;10.10;99.90;;;-144.05;57.83;56929.53;5057567;28;20393;-76
2023/03/29 09:09:35;;;;;;;6.13;2.92;;;10.00;99.90;;;-144.05;59.04;56948.66;5037508;28;20468;-77
2023/03/29 09:12:49;;;;;;;6.55;3.20;;;9.80;99.90;;;-144.05;61.97;56938.03;5057323;28;20024;-76
2023/03/29 09:15:37;;;;;;;6.97;3.08;;;9.70;99.90;;;-144.05;62.94;56910.44;5056169;28;20399;-76
2023/03/29 09:18:43;;;;;;;6.18;3.10;;;9.70;99.90;;;-144.05;62.59;56935.91;5054296;28;20033;-77
2023/03/29 09:21:30;;;;;;;8.93;3.30;;;9.70;99.90;;;-144.05;61.23;56918.94;5051005;28;20048;-76
2023/03/29 09:24:43;;;;;;;5.88;2.65;;;9.70;99.90;;;-144.05;60.40;56946.53;5053022;28;20029;-77
2023/03/29 09:27:34;;;;;;;6.50;3.15;;;9.70;99.90;;;-144.05;60.42;56933.78;4956650;28;20085;-75
2023/03/29 09:30:40;;;;;;;4.97;2.92;;;9.80;99.90;;;-144.05;59.82;56933.78;5035388;28;20183;-76
2023/03/29 09:33:36;;;;;;;6.20;3.55;;;9.80;99.90;;;-144.05;60.14;56929.53;5053542;28;20040;-75
2023/03/29 09:36:22;;;;;;;7.22;3.08;;;9.90;99.90;;;-144.05;60.45;56916.81;5053402;28;20032;-76
2023/03/29 09:38:53;;;;;;;9.00;3.70;;;10.00;99.90;;;-144.05;60.25;56925.28;5035581;28;20107;-77
2023/03/29 09:42:06;;;;;;;9.25;3.67;;;10.20;99.90;;;-144.05;59.45;56940.16;5037316;28;20020;-76
2023/03/29 09:44:43;;;;;;;13.50;3.95;;;10.40;99.90;;;-144.05;59.33;56914.69;5036199;28;20029;-76
2023/03/29 09:47:40;;;;;;;11.45;3.50;;;10.60;99.90;;;-144.05;58.83;56931.66;5034517;28;20037;-76
2023/03/29 09:50:34;;;;;;;8.30;3.90;;;10.80;99.90;;;-144.05;58.19;56901.94;5036567;28;20079;-75
2023/03/29 09:53:00;;;;;;;7.78;3.65;;;10.90;99.90;;;-144.05;57.78;56908.31;5053738;28;20411;-76
2023/03/29 09:55:32;;;;;;;15.00;4.03;;;11.10;99.90;;;-144.05;58.00;56935.91;5053921;28;20037;-75
2023/03/29 09:58:12;;;;;;;8.32;3.30;;;11.20;99.90;;;-144.05;57.68;56918.94;5035976;28;20045;-77
2023/03/29 10:00:39;;;;;;;9.27;3.85;;;11.10;99.90;;;-144.05;58.23;56914.69;5054674;28;20124;-78
2023/03/29 10:03:05;;;;;;;7.90;3.72;;;11.10;99.90;;;-144.05;58.50;56912.56;5056389;28;20036;-77
2023/03/29 10:05:39;;;;;;;10.43;4.28;;;11.20;99.90;;;-144.05;57.34;56908.31;5055918;28;20088;-77
2023/03/29 10:08:39;;;;;;;8.75;4.32;;;11.30;99.90;;;-144.05;56.96;56891.31;5055505;28;20484;-75
2023/03/29 10:11:37;;;;;;;9.05;3.45;;;11.70;99.90;;;-144.05;56.79;56921.06;5052956;28;20025;-76
2023/03/29 10:14:21;;;;;;;7.72;3.30;;;11.90;99.90;;;-144.05;56.30;56912.56;5010112;28;20036;-78
2023/03/29 10:16:55;;;;;;;7.53;3.53;;;12.20;99.90;;;-144.05;56.27;56912.56;5053733;28;20041;-76
2023/03/29 10:19:34;;;;;;;7.60;3.33;;;12.20;99.90;;;-144.05;55.43;56895.56;5039351;28;20086;-77
2023/03/29 10:22:15;;;;;;;6.85;3.10;;;12.40;99.90;;;-144.05;56.01;56891.31;5060923;28;20052;-76
2023/03/29 10:24:50;;;;;;;5.43;2.90;;;12.40;99.90;;;-144.05;55.93;56916.81;5060361;28;20434;-76
2023/03/29 10:27:26;;;;;;;6.63;3.33;;;12.30;99.90;;;-144.05;56.71;56925.28;5054845;28;20025;-76
2023/03/29 10:29:54;;;;;;;7.65;3.05;;;12.00;99.90;;;-144.05;56.96;56904.06;5036187;28;20039;-77
2023/03/29 10:32:36;;;;;;;9.77;3.15;;;11.80;99.90;;;-144.05;57.62;56927.41;5053820;28;20481;-76
2023/03/29 10:35:12;;;;;;;8.07;3.00;;;11.70;99.90;;;-144.05;57.78;56891.31;5054765;28;20025;-77